Terminal Aerodrome Forecast
Issued by NWS Wilmington, OH

Home | Current Version | Previous Version | Text Only | Print | Product List | Glossary On
Versions: 1 2 3 4 5 6 7 8 9 10 11 12 13 14 15 16 17 18 19 20 21 22 23 24 25 26 27 28 29 30 31 32 33
000
FTUS41 KILN 282000 AAB
TAFCVG
TAF AMD
KCVG 282053Z 2821/2924 31011KT P6SM SCT035 BKN060
     FM290000 33007KT P6SM SCT060
     FM290900 33005KT P6SM BKN035
     FM291400 28008KT P6SM SCT040=

USA.gov is the U.S. government's official web portal to all federal, state and local government web resources and services.